sensor_id;sensor_type;location;lat;lon;timestamp;P1;durP1;ratioP1;P2;durP2;ratioP2
49123;SDS011;48506;48.202;16.274;2023-02-01T00:00:27;3.75;;;1.50;;
49123;SDS011;48506;48.202;16.274;2023-02-01T00:02:53;2.13;;;1.30;;
49123;SDS011;48506;48.202;16.274;2023-02-01T00:05:19;1.90;;;1.42;;
49123;SDS011;48506;48.202;16.274;2023-02-01T00:07:46;2.50;;;1.52;;
49123;SDS011;48506;48.202;16.274;2023-02-01T00:10:13;2.58;;;1.60;;
49123;SDS011;48506;48.202;16.274;2023-02-01T00:12:39;1.67;;;1.30;;
49123;SDS011;48506;48.202;16.274;2023-02-01T00:15:05;1.95;;;1.35;;
49123;SDS011;48506;48.202;16.274;2023-02-01T00:17:32;1.92;;;1.30;;
49123;SDS011;48506;48.202;16.274;2023-02-01T00:19:57;1.60;;;1.45;;
49123;SDS011;48506;48.202;16.274;2023-02-01T00:22:23;1.98;;;1.20;;
49123;SDS011;48506;48.202;16.274;2023-02-01T00:24:49;1.85;;;1.35;;
49123;SDS011;48506;48.202;16.274;2023-02-01T00:27:15;3.95;;;1.42;;
49123;SDS011;48506;48.202;16.274;2023-02-01T00:29:45;2.22;;;1.38;;
49123;SDS011;48506;48.202;16.274;2023-02-01T00:32:11;2.28;;;1.20;;
49123;SDS011;48506;48.202;16.274;2023-02-01T00:34:37;2.80;;;1.60;;
49123;SDS011;48506;48.202;16.274;2023-02-01T00:37:03;2.83;;;1.80;;
49123;SDS011;48506;48.202;16.274;2023-02-01T00:39:29;1.48;;;1.30;;
49123;SDS011;48506;48.202;16.274;2023-02-01T00:41:55;3.00;;;1.80;;
49123;SDS011;48506;48.202;16.274;2023-02-01T00:44:21;3.05;;;1.58;;
49123;SDS011;48506;48.202;16.274;2023-02-01T00:46:47;2.50;;;1.67;;
49123;SDS011;48506;48.202;16.274;2023-02-01T00:49:13;4.00;;;2.63;;
49123;SDS011;48506;48.202;16.274;2023-02-01T00:51:39;3.35;;;2.05;;
49123;SDS011;48506;48.202;16.274;2023-02-01T00:54:05;3.78;;;2.00;;
49123;SDS011;48506;48.202;16.274;2023-02-01T00:56:31;3.63;;;1.80;;
49123;SDS011;48506;48.202;16.274;2023-02-01T00:58:57;3.35;;;2.10;;
49123;SDS011;48506;48.202;16.274;2023-02-01T01:01:24;2.85;;;2.00;;
49123;SDS011;48506;48.202;16.274;2023-02-01T01:03:53;4.88;;;2.10;;
49123;SDS011;48506;48.202;16.274;2023-02-01T01:06:24;2.93;;;1.90;;
49123;SDS011;48506;48.202;16.274;2023-02-01T01:08:52;8.15;;;2.35;;
49123;SDS011;48506;48.202;16.274;2023-02-01T01:11:20;2.55;;;2.08;;
49123;SDS011;48506;48.202;16.274;2023-02-01T01:13:50;3.50;;;2.33;;
49123;SDS011;48506;48.202;16.274;2023-02-01T01:16:17;3.50;;;2.78;;
49123;SDS011;48506;48.202;16.274;2023-02-01T01:18:44;3.45;;;2.05;;
49123;SDS011;48506;48.202;16.274;2023-02-01T01:21:11;2.45;;;1.60;;
49123;SDS011;48506;48.202;16.274;2023-02-01T01:23:38;1.92;;;1.58;;
49123;SDS011;48506;48.202;16.274;2023-02-01T01:26:09;3.22;;;2.00;;
49123;SDS011;48506;48.202;16.274;2023-02-01T01:28:43;2.42;;;1.40;;
49123;SDS011;48506;48.202;16.274;2023-02-01T01:31:10;1.70;;;1.30;;
49123;SDS011;48506;48.202;16.274;2023-02-01T01:33:38;1.77;;;1.25;;
49123;SDS011;48506;48.202;16.274;2023-02-01T01:36:04;4.68;;;1.23;;
49123;SDS011;48506;48.202;16.274;2023-02-01T01:38:31;2.33;;;1.55;;
49123;SDS011;48506;48.202;16.274;2023-02-01T01:40:57;1.75;;;1.45;;
49123;SDS011;48506;48.202;16.274;2023-02-01T01:43:23;3.03;;;1.30;;
49123;SDS011;48506;48.202;16.274;2023-02-01T01:45:49;2.45;;;1.60;;
49123;SDS011;48506;48.202;16.274;2023-02-01T01:48:17;1.83;;;1.50;;
49123;SDS011;48506;48.202;16.274;2023-02-01T01:51:01;4.32;;;2.00;;
49123;SDS011;48506;48.202;16.274;2023-02-01T01:53:33;2.30;;;1.95;;
49123;SDS011;48506;48.202;16.274;2023-02-01T01:56:22;3.80;;;2.30;;
49123;SDS011;48506;48.202;16.274;2023-02-01T01:58:48;2.67;;;1.73;;
49123;SDS011;48506;48.202;16.274;2023-02-01T02:01:14;3.10;;;2.13;;
49123;SDS011;48506;48.202;16.274;2023-02-01T02:03:42;4.80;;;2.17;;
49123;SDS011;48506;48.202;16.274;2023-02-01T02:06:15;3.55;;;2.05;;
49123;SDS011;48506;48.202;16.274;2023-02-01T02:08:51;5.82;;;2.20;;
49123;SDS011;48506;48.202;16.274;2023-02-01T02:11:17;3.25;;;2.35;;
49123;SDS011;48506;48.202;16.274;2023-02-01T02:13:44;3.65;;;2.35;;
49123;SDS011;48506;48.202;16.274;2023-02-01T02:30:40;3.72;;;1.23;;
49123;SDS011;48506;48.202;16.274;2023-02-01T02:45:06;1.70;;;1.40;;
49123;SDS011;48506;48.202;16.274;2023-02-01T02:53:47;2.13;;;1.70;;
49123;SDS011;48506;48.202;16.274;2023-02-01T02:56:40;4.03;;;1.88;;
49123;SDS011;48506;48.202;16.274;2023-02-01T02:59:26;3.95;;;1.70;;
49123;SDS011;48506;48.202;16.274;2023-02-01T03:02:12;2.42;;;1.70;;
49123;SDS011;48506;48.202;16.274;2023-02-01T03:04:57;2.78;;;1.70;;
49123;SDS011;48506;48.202;16.274;2023-02-01T03:10:16;1.80;;;1.52;;
49123;SDS011;48506;48.202;16.274;2023-02-01T03:16:07;3.00;;;1.92;;
49123;SDS011;48506;48.202;16.274;2023-02-01T03:21:33;2.15;;;1.70;;
49123;SDS011;48506;48.202;16.274;2023-02-01T03:24:15;2.58;;;2.10;;
49123;SDS011;48506;48.202;16.274;2023-02-01T03:29:48;4.68;;;2.67;;
49123;SDS011;48506;48.202;16.274;2023-02-01T03:32:19;2.75;;;2.10;;
49123;SDS011;48506;48.202;16.274;2023-02-01T03:34:46;3.03;;;2.65;;
49123;SDS011;48506;48.202;16.274;2023-02-01T03:37:21;2.70;;;1.85;;
49123;SDS011;48506;48.202;16.274;2023-02-01T03:40:06;2.95;;;2.33;;
49123;SDS011;48506;48.202;16.274;2023-02-01T03:42:43;2.55;;;2.20;;
49123;SDS011;48506;48.202;16.274;2023-02-01T03:45:20;3.40;;;2.85;;
49123;SDS011;48506;48.202;16.274;2023-02-01T03:50:21;3.13;;;2.53;;
49123;SDS011;48506;48.202;16.274;2023-02-01T03:55:48;4.15;;;2.50;;
49123;SDS011;48506;48.202;16.274;2023-02-01T03:58:16;6.70;;;3.00;;
49123;SDS011;48506;48.202;16.274;2023-02-01T04:00:50;4.65;;;2.75;;
49123;SDS011;48506;48.202;16.274;2023-02-01T04:03:18;4.80;;;3.45;;
49123;SDS011;48506;48.202;16.274;2023-02-01T04:05:46;3.80;;;3.03;;
49123;SDS011;48506;48.202;16.274;2023-02-01T04:08:13;5.00;;;2.78;;
49123;SDS011;48506;48.202;16.274;2023-02-01T04:10:40;3.80;;;2.83;;
49123;SDS011;48506;48.202;16.274;2023-02-01T04:13:06;4.65;;;3.35;;
49123;SDS011;48506;48.202;16.274;2023-02-01T04:15:32;4.72;;;3.03;;
49123;SDS011;48506;48.202;16.274;2023-02-01T04:18:00;3.55;;;2.70;;
49123;SDS011;48506;48.202;16.274;2023-02-01T04:20:26;4.57;;;2.50;;
49123;SDS011;48506;48.202;16.274;2023-02-01T04:22:52;5.63;;;2.88;;
49123;SDS011;48506;48.202;16.274;2023-02-01T04:25:18;9.57;;;3.38;;
49123;SDS011;48506;48.202;16.274;2023-02-01T04:27:45;4.45;;;2.42;;
49123;SDS011;48506;48.202;16.274;2023-02-01T04:30:11;4.28;;;3.05;;
49123;SDS011;48506;48.202;16.274;2023-02-01T04:32:38;4.30;;;2.67;;
49123;SDS011;48506;48.202;16.274;2023-02-01T04:35:05;3.97;;;2.88;;
49123;SDS011;48506;48.202;16.274;2023-02-01T04:37:31;4.75;;;3.38;;
49123;SDS011;48506;48.202;16.274;2023-02-01T04:39:57;4.38;;;2.85;;
49123;SDS011;48506;48.202;16.274;2023-02-01T04:42:23;4.50;;;2.80;;
49123;SDS011;48506;48.202;16.274;2023-02-01T04:44:50;3.17;;;2.85;;
49123;SDS011;48506;48.202;16.274;2023-02-01T04:47:16;6.03;;;3.40;;
49123;SDS011;48506;48.202;16.274;2023-02-01T04:49:42;4.45;;;3.40;;
49123;SDS011;48506;48.202;16.274;2023-02-01T04:52:08;4.38;;;3.25;;
49123;SDS011;48506;48.202;16.274;2023-02-01T04:54:34;4.32;;;3.13;;
49123;SDS011;48506;48.202;16.274;2023-02-01T04:57:00;5.03;;;3.40;;
49123;SDS011;48506;48.202;16.274;2023-02-01T04:59:26;5.30;;;2.92;;
49123;SDS011;48506;48.202;16.274;2023-02-01T05:01:52;4.72;;;3.50;;
49123;SDS011;48506;48.202;16.274;2023-02-01T05:04:18;3.97;;;2.97;;
49123;SDS011;48506;48.202;16.274;2023-02-01T05:06:44;3.97;;;2.40;;
49123;SDS011;48506;48.202;16.274;2023-02-01T05:09:10;3.70;;;2.85;;
49123;SDS011;48506;48.202;16.274;2023-02-01T05:11:36;4.07;;;2.95;;
49123;SDS011;48506;48.202;16.274;2023-02-01T05:14:21;5.03;;;2.75;;
49123;SDS011;48506;48.202;16.274;2023-02-01T05:16:47;5.47;;;2.97;;
49123;SDS011;48506;48.202;16.274;2023-02-01T05:19:13;5.50;;;3.10;;
49123;SDS011;48506;48.202;16.274;2023-02-01T05:21:39;5.55;;;3.00;;
49123;SDS011;48506;48.202;16.274;2023-02-01T05:24:05;4.80;;;3.47;;
49123;SDS011;48506;48.202;16.274;2023-02-01T05:26:36;4.13;;;2.63;;
49123;SDS011;48506;48.202;16.274;2023-02-01T05:29:03;5.40;;;3.50;;
49123;SDS011;48506;48.202;16.274;2023-02-01T05:31:31;5.72;;;3.05;;
49123;SDS011;48506;48.202;16.274;2023-02-01T05:33:57;6.03;;;3.10;;
49123;SDS011;48506;48.202;16.274;2023-02-01T05:36:26;4.78;;;3.40;;
49123;SDS011;48506;48.202;16.274;2023-02-01T05:38:52;5.13;;;3.20;;
49123;SDS011;48506;48.202;16.274;2023-02-01T05:41:18;5.13;;;3.35;;
49123;SDS011;48506;48.202;16.274;2023-02-01T05:43:44;3.90;;;3.25;;
49123;SDS011;48506;48.202;16.274;2023-02-01T05:46:10;4.10;;;3.20;;
49123;SDS011;48506;48.202;16.274;2023-02-01T05:48:38;5.72;;;3.33;;
49123;SDS011;48506;48.202;16.274;2023-02-01T05:51:04;11.45;;;4.63;;
49123;SDS011;48506;48.202;16.274;2023-02-01T05:53:30;5.93;;;3.28;;
49123;SDS011;48506;48.202;16.274;2023-02-01T05:55:56;5.95;;;3.30;;
49123;SDS011;48506;48.202;16.274;2023-02-01T05:58:22;5.75;;;3.40;;
49123;SDS011;48506;48.202;16.274;2023-02-01T06:00:48;4.45;;;3.10;;
49123;SDS011;48506;48.202;16.274;2023-02-01T06:03:14;3.92;;;2.60;;
49123;SDS011;48506;48.202;16.274;2023-02-01T06:05:40;4.90;;;3.30;;
49123;SDS011;48506;48.202;16.274;2023-02-01T06:08:09;5.05;;;2.78;;
49123;SDS011;48506;48.202;16.274;2023-02-01T06:10:35;5.35;;;2.88;;
49123;SDS011;48506;48.202;16.274;2023-02-01T06:13:01;4.30;;;2.63;;
49123;SDS011;48506;48.202;16.274;2023-02-01T06:15:28;4.50;;;3.10;;
49123;SDS011;48506;48.202;16.274;2023-02-01T06:17:54;5.18;;;2.90;;
49123;SDS011;48506;48.202;16.274;2023-02-01T06:20:20;6.25;;;2.85;;
49123;SDS011;48506;48.202;16.274;2023-02-01T06:22:46;4.97;;;2.95;;
49123;SDS011;48506;48.202;16.274;2023-02-01T06:25:12;5.53;;;3.65;;
49123;SDS011;48506;48.202;16.274;2023-02-01T06:27:38;5.47;;;3.67;;
49123;SDS011;48506;48.202;16.274;2023-02-01T06:30:05;4.38;;;2.92;;
49123;SDS011;48506;48.202;16.274;2023-02-01T06:32:32;5.63;;;3.55;;
49123;SDS011;48506;48.202;16.274;2023-02-01T06:34:58;8.73;;;3.42;;
49123;SDS011;48506;48.202;16.274;2023-02-01T06:37:25;5.93;;;3.08;;
49123;SDS011;48506;48.202;16.274;2023-02-01T06:39:54;4.25;;;3.38;;
49123;SDS011;48506;48.202;16.274;2023-02-01T06:42:20;4.60;;;2.92;;
49123;SDS011;48506;48.202;16.274;2023-02-01T06:44:46;4.88;;;2.67;;
49123;SDS011;48506;48.202;16.274;2023-02-01T06:47:12;4.72;;;2.85;;
49123;SDS011;48506;48.202;16.274;2023-02-01T06:49:38;5.72;;;2.63;;
49123;SDS011;48506;48.202;16.274;2023-02-01T06:52:05;4.25;;;2.58;;
49123;SDS011;48506;48.202;16.274;2023-02-01T06:54:31;4.55;;;2.33;;
49123;SDS011;48506;48.202;16.274;2023-02-01T06:56:58;3.85;;;3.35;;
49123;SDS011;48506;48.202;16.274;2023-02-01T06:59:25;8.43;;;3.03;;
49123;SDS011;48506;48.202;16.274;2023-02-01T07:01:51;5.78;;;2.80;;
49123;SDS011;48506;48.202;16.274;2023-02-01T07:04:17;3.28;;;2.10;;
49123;SDS011;48506;48.202;16.274;2023-02-01T07:06:43;6.55;;;2.33;;
49123;SDS011;48506;48.202;16.274;2023-02-01T07:09:08;3.75;;;2.15;;
49123;SDS011;48506;48.202;16.274;2023-02-01T07:11:35;4.90;;;2.78;;
49123;SDS011;48506;48.202;16.274;2023-02-01T07:14:02;4.80;;;2.88;;
49123;SDS011;48506;48.202;16.274;2023-02-01T07:16:29;3.08;;;2.47;;
49123;SDS011;48506;48.202;16.274;2023-02-01T07:18:56;4.10;;;2.83;;
49123;SDS011;48506;48.202;16.274;2023-02-01T07:21:22;4.38;;;2.38;;
49123;SDS011;48506;48.202;16.274;2023-02-01T07:23:48;4.10;;;2.40;;
49123;SDS011;48506;48.202;16.274;2023-02-01T07:26:14;5.35;;;2.70;;
49123;SDS011;48506;48.202;16.274;2023-02-01T07:28:41;4.15;;;2.20;;
49123;SDS011;48506;48.202;16.274;2023-02-01T07:31:14;4.25;;;2.55;;
49123;SDS011;48506;48.202;16.274;2023-02-01T07:33:46;3.95;;;2.50;;
49123;SDS011;48506;48.202;16.274;2023-02-01T07:36:13;3.38;;;2.30;;
49123;SDS011;48506;48.202;16.274;2023-02-01T07:38:41;2.78;;;2.03;;
49123;SDS011;48506;48.202;16.274;2023-02-01T07:41:07;4.22;;;2.53;;
49123;SDS011;48506;48.202;16.274;2023-02-01T07:43:34;6.32;;;2.67;;
49123;SDS011;48506;48.202;16.274;2023-02-01T07:46:01;8.00;;;2.33;;
49123;SDS011;48506;48.202;16.274;2023-02-01T07:48:28;3.72;;;2.70;;
49123;SDS011;48506;48.202;16.274;2023-02-01T07:50:58;4.60;;;2.58;;
49123;SDS011;48506;48.202;16.274;2023-02-01T07:56:17;4.10;;;2.75;;
49123;SDS011;48506;48.202;16.274;2023-02-01T07:58:48;7.00;;;2.92;;
49123;SDS011;48506;48.202;16.274;2023-02-01T08:01:20;3.47;;;2.80;;
49123;SDS011;48506;48.202;16.274;2023-02-01T08:03:52;3.55;;;2.78;;
49123;SDS011;48506;48.202;16.274;2023-02-01T08:06:21;5.63;;;3.45;;
49123;SDS011;48506;48.202;16.274;2023-02-01T08:08:49;4.03;;;3.17;;
49123;SDS011;48506;48.202;16.274;2023-02-01T08:11:16;5.10;;;3.50;;
49123;SDS011;48506;48.202;16.274;2023-02-01T08:13:44;5.43;;;3.55;;
49123;SDS011;48506;48.202;16.274;2023-02-01T08:16:11;7.55;;;3.15;;
49123;SDS011;48506;48.202;16.274;2023-02-01T08:18:38;5.28;;;3.40;;
49123;SDS011;48506;48.202;16.274;2023-02-01T08:21:09;5.18;;;2.92;;
49123;SDS011;48506;48.202;16.274;2023-02-01T08:23:38;5.50;;;3.50;;
49123;SDS011;48506;48.202;16.274;2023-02-01T08:26:15;3.50;;;2.60;;
49123;SDS011;48506;48.202;16.274;2023-02-01T08:28:48;5.05;;;2.92;;
49123;SDS011;48506;48.202;16.274;2023-02-01T08:31:17;4.10;;;2.80;;
49123;SDS011;48506;48.202;16.274;2023-02-01T08:33:50;4.25;;;2.83;;
49123;SDS011;48506;48.202;16.274;2023-02-01T08:36:18;4.70;;;2.60;;
49123;SDS011;48506;48.202;16.274;2023-02-01T08:38:45;4.50;;;2.65;;
49123;SDS011;48506;48.202;16.274;2023-02-01T08:41:18;4.95;;;2.60;;
49123;SDS011;48506;48.202;16.274;2023-02-01T08:43:46;5.70;;;2.63;;
49123;SDS011;48506;48.202;16.274;2023-02-01T08:46:14;4.95;;;2.60;;
49123;SDS011;48506;48.202;16.274;2023-02-01T08:48:40;4.05;;;2.50;;
49123;SDS011;48506;48.202;16.274;2023-02-01T08:51:08;4.68;;;2.70;;
49123;SDS011;48506;48.202;16.274;2023-02-01T08:53:36;3.35;;;2.40;;
49123;SDS011;48506;48.202;16.274;2023-02-01T08:56:06;4.30;;;2.70;;
49123;SDS011;48506;48.202;16.274;2023-02-01T08:58:33;5.35;;;3.67;;
49123;SDS011;48506;48.202;16.274;2023-02-01T09:01:06;5.47;;;2.97;;
49123;SDS011;48506;48.202;16.274;2023-02-01T09:03:34;8.38;;;3.35;;
49123;SDS011;48506;48.202;16.274;2023-02-01T09:06:05;3.72;;;2.80;;
49123;SDS011;48506;48.202;16.274;2023-02-01T09:08:33;4.78;;;2.95;;
49123;SDS011;48506;48.202;16.274;2023-02-01T09:11:04;5.88;;;3.05;;
49123;SDS011;48506;48.202;16.274;2023-02-01T09:13:31;6.63;;;3.78;;
49123;SDS011;48506;48.202;16.274;2023-02-01T09:15:58;3.30;;;2.50;;
49123;SDS011;48506;48.202;16.274;2023-02-01T09:18:25;6.00;;;3.08;;
49123;SDS011;48506;48.202;16.274;2023-02-01T09:20:51;7.43;;;3.75;;
49123;SDS011;48506;48.202;16.274;2023-02-01T09:23:17;6.72;;;3.30;;
49123;SDS011;48506;48.202;16.274;2023-02-01T09:25:45;5.18;;;3.30;;
49123;SDS011;48506;48.202;16.274;2023-02-01T09:28:11;4.53;;;3.03;;
49123;SDS011;48506;48.202;16.274;2023-02-01T09:30:38;7.70;;;3.33;;
49123;SDS011;48506;48.202;16.274;2023-02-01T09:33:04;6.43;;;3.20;;
49123;SDS011;48506;48.202;16.274;2023-02-01T09:35:30;6.20;;;2.80;;
49123;SDS011;48506;48.202;16.274;2023-02-01T09:37:57;6.25;;;2.53;;
49123;SDS011;48506;48.202;16.274;2023-02-01T09:40:24;3.47;;;2.95;;
49123;SDS011;48506;48.202;16.274;2023-02-01T09:42:55;3.67;;;2.47;;
49123;SDS011;48506;48.202;16.274;2023-02-01T09:48:20;2.83;;;2.28;;
49123;SDS011;48506;48.202;16.274;2023-02-01T09:50:54;2.85;;;2.42;;
49123;SDS011;48506;48.202;16.274;2023-02-01T09:53:26;4.30;;;2.40;;
49123;SDS011;48506;48.202;16.274;2023-02-01T09:56:07;3.90;;;2.65;;
49123;SDS011;48506;48.202;16.274;2023-02-01T09:58:51;3.95;;;1.92;;
49123;SDS011;48506;48.202;16.274;2023-02-01T10:01:29;4.07;;;1.95;;
49123;SDS011;48506;48.202;16.274;2023-02-01T10:04:04;4.75;;;2.35;;
49123;SDS011;48506;48.202;16.274;2023-02-01T10:06:37;3.38;;;1.98;;
49123;SDS011;48506;48.202;16.274;2023-02-01T10:10:13;4.35;;;2.55;;
49123;SDS011;48506;48.202;16.274;2023-02-01T10:23:45;5.93;;;2.20;;
49123;SDS011;48506;48.202;16.274;2023-02-01T10:28:53;3.55;;;2.50;;
49123;SDS011;48506;48.202;16.274;2023-02-01T10:31:23;1.98;;;1.70;;
49123;SDS011;48506;48.202;16.274;2023-02-01T10:33:58;5.82;;;2.47;;
49123;SDS011;48506;48.202;16.274;2023-02-01T10:36:37;3.65;;;1.65;;
49123;SDS011;48506;48.202;16.274;2023-02-01T10:39:08;3.58;;;2.15;;
49123;SDS011;48506;48.202;16.274;2023-02-01T10:41:38;3.63;;;1.95;;
49123;SDS011;48506;48.202;16.274;2023-02-01T10:44:07;2.10;;;1.40;;
49123;SDS011;48506;48.202;16.274;2023-02-01T10:46:41;1.95;;;1.38;;
49123;SDS011;48506;48.202;16.274;2023-02-01T10:49:15;2.67;;;2.22;;
49123;SDS011;48506;48.202;16.274;2023-02-01T10:54:36;3.17;;;2.38;;
49123;SDS011;48506;48.202;16.274;2023-02-01T10:57:07;5.85;;;2.17;;
49123;SDS011;48506;48.202;16.274;2023-02-01T10:59:45;4.13;;;2.38;;
49123;SDS011;48506;48.202;16.274;2023-02-01T11:05:01;4.53;;;2.55;;
49123;SDS011;48506;48.202;16.274;2023-02-01T11:07:35;4.50;;;2.28;;
49123;SDS011;48506;48.202;16.274;2023-02-01T11:10:03;4.53;;;2.65;;
49123;SDS011;48506;48.202;16.274;2023-02-01T11:12:33;3.33;;;1.88;;
49123;SDS011;48506;48.202;16.274;2023-02-01T11:15:03;3.10;;;2.35;;
49123;SDS011;48506;48.202;16.274;2023-02-01T11:17:52;5.70;;;2.17;;
49123;SDS011;48506;48.202;16.274;2023-02-01T11:22:59;3.25;;;2.33;;
49123;SDS011;48506;48.202;16.274;2023-02-01T11:25:26;4.05;;;2.72;;
49123;SDS011;48506;48.202;16.274;2023-02-01T11:27:53;4.32;;;2.67;;
49123;SDS011;48506;48.202;16.274;2023-02-01T11:30:32;5.43;;;2.47;;
49123;SDS011;48506;48.202;16.274;2023-02-01T11:33:04;5.15;;;2.88;;
49123;SDS011;48506;48.202;16.274;2023-02-01T11:35:32;5.07;;;2.67;;
49123;SDS011;48506;48.202;16.274;2023-02-01T11:38:09;11.40;;;3.50;;
49123;SDS011;48506;48.202;16.274;2023-02-01T11:41:10;6.38;;;3.00;;
49123;SDS011;48506;48.202;16.274;2023-02-01T11:43:55;3.40;;;2.80;;
49123;SDS011;48506;48.202;16.274;2023-02-01T11:46:27;4.68;;;2.90;;
49123;SDS011;48506;48.202;16.274;2023-02-01T11:58:27;4.43;;;2.87;;
49123;SDS011;48506;48.202;16.274;2023-02-01T12:08:46;5.30;;;2.63;;
49123;SDS011;48506;48.202;16.274;2023-02-01T12:19:39;3.85;;;2.83;;
49123;SDS011;48506;48.202;16.274;2023-02-01T12:25:24;4.38;;;2.58;;
49123;SDS011;48506;48.202;16.274;2023-02-01T12:30:49;2.55;;;1.83;;
49123;SDS011;48506;48.202;16.274;2023-02-01T12:38:36;4.75;;;2.20;;
49123;SDS011;48506;48.202;16.274;2023-02-01T12:41:20;3.17;;;1.75;;
49123;SDS011;48506;48.202;16.274;2023-02-01T12:44:30;3.22;;;2.55;;
49123;SDS011;48506;48.202;16.274;2023-02-01T12:52:30;1.98;;;1.50;;
49123;SDS011;48506;48.202;16.274;2023-02-01T12:55:10;1.45;;;1.20;;
49123;SDS011;48506;48.202;16.274;2023-02-01T12:58:12;4.85;;;1.67;;
49123;SDS011;48506;48.202;16.274;2023-02-01T13:00:48;3.05;;;1.48;;
49123;SDS011;48506;48.202;16.274;2023-02-01T13:03:33;6.00;;;1.77;;
49123;SDS011;48506;48.202;16.274;2023-02-01T13:06:10;4.82;;;1.52;;
49123;SDS011;48506;48.202;16.274;2023-02-01T13:08:44;3.00;;;1.60;;
49123;SDS011;48506;48.202;16.274;2023-02-01T13:11:34;3.03;;;1.73;;
49123;SDS011;48506;48.202;16.274;2023-02-01T13:14:23;4.22;;;1.40;;
49123;SDS011;48506;48.202;16.274;2023-02-01T13:17:05;2.28;;;1.42;;
49123;SDS011;48506;48.202;16.274;2023-02-01T13:22:30;2.83;;;1.38;;
49123;SDS011;48506;48.202;16.274;2023-02-01T13:25:00;2.78;;;0.70;;
49123;SDS011;48506;48.202;16.274;2023-02-01T13:27:46;1.05;;;0.80;;
49123;SDS011;48506;48.202;16.274;2023-02-01T13:30:23;0.40;;;0.40;;
49123;SDS011;48506;48.202;16.274;2023-02-01T13:33:10;1.83;;;0.75;;
49123;SDS011;48506;48.202;16.274;2023-02-01T13:38:39;1.95;;;0.65;;
49123;SDS011;48506;48.202;16.274;2023-02-01T13:41:29;1.95;;;0.77;;
49123;SDS011;48506;48.202;16.274;2023-02-01T13:44:04;2.15;;;0.80;;
49123;SDS011;48506;48.202;16.274;2023-02-01T13:46:40;2.33;;;0.88;;
49123;SDS011;48506;48.202;16.274;2023-02-01T13:49:24;3.03;;;0.90;;
49123;SDS011;48506;48.202;16.274;2023-02-01T13:51:55;1.33;;;0.90;;
49123;SDS011;48506;48.202;16.274;2023-02-01T13:54:24;1.15;;;0.80;;
49123;SDS011;48506;48.202;16.274;2023-02-01T13:56:53;1.55;;;0.80;;
49123;SDS011;48506;48.202;16.274;2023-02-01T14:05:11;0.93;;;0.75;;
49123;SDS011;48506;48.202;16.274;2023-02-01T14:16:22;2.35;;;0.80;;
49123;SDS011;48506;48.202;16.274;2023-02-01T14:29:00;1.17;;;0.68;;
49123;SDS011;48506;48.202;16.274;2023-02-01T14:31:40;0.60;;;0.50;;
49123;SDS011;48506;48.202;16.274;2023-02-01T14:34:34;0.30;;;0.30;;
49123;SDS011;48506;48.202;16.274;2023-02-01T14:44:50;1.33;;;0.32;;
49123;SDS011;48506;48.202;16.274;2023-02-01T14:52:23;1.13;;;0.40;;
49123;SDS011;48506;48.202;16.274;2023-02-01T14:55:18;1.83;;;0.60;;
49123;SDS011;48506;48.202;16.274;2023-02-01T14:57:55;0.77;;;0.60;;
49123;SDS011;48506;48.202;16.274;2023-02-01T15:00:25;0.98;;;0.50;;
49123;SDS011;48506;48.202;16.274;2023-02-01T15:05:54;5.05;;;1.17;;
49123;SDS011;48506;48.202;16.274;2023-02-01T15:08:24;2.08;;;0.80;;
49123;SDS011;48506;48.202;16.274;2023-02-01T15:10:53;2.88;;;1.08;;
49123;SDS011;48506;48.202;16.274;2023-02-01T15:13:21;4.93;;;1.33;;
49123;SDS011;48506;48.202;16.274;2023-02-01T15:19:06;2.17;;;1.17;;
49123;SDS011;48506;48.202;16.274;2023-02-01T15:21:44;2.08;;;1.30;;
49123;SDS011;48506;48.202;16.274;2023-02-01T15:24:13;3.17;;;1.35;;
49123;SDS011;48506;48.202;16.274;2023-02-01T15:27:04;2.42;;;1.15;;
49123;SDS011;48506;48.202;16.274;2023-02-01T15:29:31;3.70;;;1.50;;
49123;SDS011;48506;48.202;16.274;2023-02-01T15:31:58;2.75;;;1.67;;
49123;SDS011;48506;48.202;16.274;2023-02-01T15:34:43;2.47;;;1.50;;
49123;SDS011;48506;48.202;16.274;2023-02-01T15:37:13;2.25;;;1.23;;
49123;SDS011;48506;48.202;16.274;2023-02-01T15:42:46;2.35;;;1.30;;
49123;SDS011;48506;48.202;16.274;2023-02-01T15:45:21;4.53;;;1.63;;
49123;SDS011;48506;48.202;16.274;2023-02-01T15:47:52;2.53;;;1.55;;
49123;SDS011;48506;48.202;16.274;2023-02-01T15:50:19;3.10;;;1.63;;
49123;SDS011;48506;48.202;16.274;2023-02-01T15:52:46;3.30;;;1.50;;
49123;SDS011;48506;48.202;16.274;2023-02-01T15:55:20;4.10;;;1.38;;
49123;SDS011;48506;48.202;16.274;2023-02-01T15:57:47;2.03;;;1.35;;
49123;SDS011;48506;48.202;16.274;2023-02-01T16:00:24;4.15;;;1.08;;
49123;SDS011;48506;48.202;16.274;2023-02-01T16:03:26;3.00;;;1.05;;
49123;SDS011;48506;48.202;16.274;2023-02-01T16:06:03;3.75;;;1.15;;
49123;SDS011;48506;48.202;16.274;2023-02-01T16:08:31;2.33;;;0.90;;
49123;SDS011;48506;48.202;16.274;2023-02-01T16:13:34;3.25;;;1.23;;
49123;SDS011;48506;48.202;16.274;2023-02-01T16:16:01;5.22;;;1.42;;
49123;SDS011;48506;48.202;16.274;2023-02-01T16:18:29;4.82;;;1.33;;
49123;SDS011;48506;48.202;16.274;2023-02-01T16:20:54;4.85;;;1.42;;
49123;SDS011;48506;48.202;16.274;2023-02-01T16:23:21;4.15;;;1.27;;
49123;SDS011;48506;48.202;16.274;2023-02-01T16:25:47;2.53;;;1.05;;
49123;SDS011;48506;48.202;16.274;2023-02-01T16:28:13;4.05;;;1.30;;
49123;SDS011;48506;48.202;16.274;2023-02-01T16:30:38;6.13;;;1.40;;
49123;SDS011;48506;48.202;16.274;2023-02-01T16:33:05;4.30;;;1.92;;
49123;SDS011;48506;48.202;16.274;2023-02-01T16:35:37;11.27;;;4.20;;
49123;SDS011;48506;48.202;16.274;2023-02-01T16:38:13;9.98;;;2.65;;
49123;SDS011;48506;48.202;16.274;2023-02-01T16:40:45;7.00;;;2.38;;
49123;SDS011;48506;48.202;16.274;2023-02-01T16:43:15;13.07;;;3.95;;
49123;SDS011;48506;48.202;16.274;2023-02-01T16:45:43;12.68;;;3.40;;
49123;SDS011;48506;48.202;16.274;2023-02-01T16:48:23;7.45;;;2.15;;
49123;SDS011;48506;48.202;16.274;2023-02-01T16:50:52;8.27;;;2.50;;
49123;SDS011;48506;48.202;16.274;2023-02-01T16:53:23;5.63;;;2.93;;
49123;SDS011;48506;48.202;16.274;2023-02-01T16:55:53;5.65;;;2.22;;
49123;SDS011;48506;48.202;16.274;2023-02-01T16:58:20;5.35;;;2.15;;
49123;SDS011;48506;48.202;16.274;2023-02-01T17:00:48;4.50;;;2.28;;
49123;SDS011;48506;48.202;16.274;2023-02-01T17:03:18;5.47;;;2.53;;
49123;SDS011;48506;48.202;16.274;2023-02-01T17:05:50;4.43;;;2.83;;
49123;SDS011;48506;48.202;16.274;2023-02-01T17:08:35;6.07;;;2.28;;
49123;SDS011;48506;48.202;16.274;2023-02-01T17:11:07;8.43;;;3.13;;
49123;SDS011;48506;48.202;16.274;2023-02-01T17:13:36;6.32;;;3.17;;
49123;SDS011;48506;48.202;16.274;2023-02-01T17:18:52;5.53;;;2.72;;
49123;SDS011;48506;48.202;16.274;2023-02-01T17:21:42;4.20;;;2.83;;
49123;SDS011;48506;48.202;16.274;2023-02-01T17:24:14;5.28;;;3.35;;
49123;SDS011;48506;48.202;16.274;2023-02-01T17:26:42;5.80;;;3.13;;
49123;SDS011;48506;48.202;16.274;2023-02-01T17:29:11;5.28;;;2.92;;
49123;SDS011;48506;48.202;16.274;2023-02-01T17:31:39;6.97;;;3.00;;
49123;SDS011;48506;48.202;16.274;2023-02-01T17:34:09;4.55;;;3.28;;
49123;SDS011;48506;48.202;16.274;2023-02-01T17:36:36;6.93;;;3.83;;
49123;SDS011;48506;48.202;16.274;2023-02-01T17:39:05;4.95;;;3.40;;
49123;SDS011;48506;48.202;16.274;2023-02-01T17:41:33;6.78;;;3.13;;
49123;SDS011;48506;48.202;16.274;2023-02-01T17:44:00;5.10;;;3.00;;
49123;SDS011;48506;48.202;16.274;2023-02-01T17:46:27;5.72;;;3.20;;
49123;SDS011;48506;48.202;16.274;2023-02-01T17:48:55;6.65;;;3.75;;
49123;SDS011;48506;48.202;16.274;2023-02-01T17:51:25;11.57;;;3.63;;